Aviation Digital Data Service (ADDS)

Output produced by METARs form (1645 UTC 20 January 2019)
found at http://www.aviationweather.gov/metar/data/
 
DIBK 201600Z 14004KT CAVOK 34/15 Q1013 NOSIG
TAF DIBK 201100Z 2012/2112 26010KT 8000 SCT013 
     PROB30 
     TEMPO 2016/2021 BKN013 FEW030CB 
     TEMPO 2105/2109 3000 BR
       
DIAP 201630Z 19009KT 160V220 9999 FEW013 31/23 Q1010 NOSIG
TAF DIAP 201100Z 2012/2118 24012KT 9999 SCT012 
     PROB30 
     TEMPO 2015/2020 TS BKN012 FEW020CB 
     TEMPO 2115/2118 TS BKN012 FEW020CB
       
TAF DIYO 201100Z 2012/2112 25010KT 8000 SCT013 
     PROB30 
     TEMPO 2015/2020 BKN013 FEW025CB 
     TEMPO 2105/2109 2000 BR